Time;durP1;ratioP1;P1;durP2;ratioP2;P2;SDS_P1;SDS_P2;PMS_P1;PMS_P2;Temp;Humidity;BMP_temperature;BMP_pressure;BME280_temperature;BME280_humidity;BME280_pressure;Samples;Min_cycle;Max_cycle;Signal;HPM_P1;HPM_P2
2023/12/28 00:01:14;;;;;;;67.70;29.17;;;;;;;;;;4924610;29;20284;-74
2023/12/28 00:03:41;;;;;;;71.17;29.57;;;;;;;;;;4925745;29;20225;-74
2023/12/28 00:06:06;;;;;;;64.60;29.33;;;;;;;;;;4924265;29;20226;-74
2023/12/28 00:08:32;;;;;;;72.90;30.30;;;;;;;;;;4908963;29;20229;-74
2023/12/28 00:10:57;;;;;;;68.90;28.77;;;;;;;;;;4908072;29;20384;-74
2023/12/28 00:13:23;;;;;;;66.30;29.77;;;;;;;;;;4924549;29;20244;-73
2023/12/28 00:15:48;;;;;;;66.90;29.07;;;;;;;;;;4925781;29;20235;-74
2023/12/28 00:18:13;;;;;;;63.03;28.97;;;;;;;;;;4926189;29;20222;-72
2023/12/28 00:20:39;;;;;;;62.23;26.73;;;;;;;;;;4924409;29;20229;-71
2023/12/28 00:23:05;;;;;;;63.03;27.53;;;;;;;;;;4924109;29;20247;-70
2023/12/28 00:25:30;;;;;;;63.93;26.27;;;;;;;;;;4925026;29;20218;-71
2023/12/28 00:27:56;;;;;;;52.67;23.37;;;;;;;;;;4924043;29;20233;-70
2023/12/28 00:30:21;;;;;;;53.73;23.33;;;;;;;;;;4908987;29;20305;-74
2023/12/28 00:32:46;;;;;;;52.70;22.60;;;;;;;;;;4907451;29;20421;-74
2023/12/28 00:35:12;;;;;;;48.67;22.33;;;;;;;;;;4923897;29;20249;-73
2023/12/28 00:37:37;;;;;;;51.80;22.07;;;;;;;;;;4908284;29;20614;-74
2023/12/28 00:40:03;;;;;;;53.17;21.37;;;;;;;;;;4923247;29;20361;-74
2023/12/28 00:42:28;;;;;;;50.80;22.07;;;;;;;;;;4899773;29;20237;-74
2023/12/28 00:44:53;;;;;;;52.10;22.30;;;;;;;;;;4923946;29;20225;-74
2023/12/28 00:47:18;;;;;;;54.97;21.40;;;;;;;;;;4925351;29;20229;-74
2023/12/28 00:49:44;;;;;;;44.50;20.47;;;;;;;;;;4909360;29;20236;-74
2023/12/28 00:52:09;;;;;;;47.27;20.77;;;;;;;;;;4927787;29;20629;-73
2023/12/28 00:54:36;;;;;;;47.23;19.90;;;;;;;;;;4927547;29;20650;-74
2023/12/28 00:57:01;;;;;;;49.53;20.33;;;;;;;;;;4910875;29;20233;-73
2023/12/28 00:59:27;;;;;;;48.63;21.20;;;;;;;;;;4929104;29;20225;-73
2023/12/28 01:01:52;;;;;;;50.30;20.80;;;;;;;;;;4927063;29;20235;-74
2023/12/28 01:04:18;;;;;;;49.03;20.90;;;;;;;;;;4927484;29;20241;-74
2023/12/28 01:06:43;;;;;;;48.37;21.33;;;;;;;;;;4927480;29;20250;-74
2023/12/28 01:09:09;;;;;;;42.60;20.23;;;;;;;;;;4911333;29;20916;-73
2023/12/28 01:11:34;;;;;;;51.77;21.17;;;;;;;;;;4927967;29;20225;-74
2023/12/28 01:14:00;;;;;;;52.73;21.33;;;;;;;;;;4927262;29;20248;-74
2023/12/28 01:16:25;;;;;;;48.13;20.30;;;;;;;;;;4926868;29;20221;-74
2023/12/28 01:18:50;;;;;;;51.17;20.87;;;;;;;;;;4926617;29;20320;-74
2023/12/28 01:21:16;;;;;;;44.47;20.50;;;;;;;;;;4926681;29;20265;-73
2023/12/28 01:23:41;;;;;;;47.27;20.03;;;;;;;;;;4928325;29;20248;-73
2023/12/28 01:26:11;;;;;;;45.10;19.53;;;;;;;;;;4910704;29;20241;-73
2023/12/28 01:28:37;;;;;;;44.83;19.23;;;;;;;;;;4927589;29;20225;-74
2023/12/28 01:31:02;;;;;;;43.43;19.40;;;;;;;;;;4928311;29;20233;-74
2023/12/28 01:33:28;;;;;;;45.27;20.53;;;;;;;;;;4927232;29;20459;-73
2023/12/28 01:35:53;;;;;;;44.47;19.80;;;;;;;;;;4924128;29;20237;-72
2023/12/28 01:38:18;;;;;;;43.47;19.53;;;;;;;;;;4928578;29;20264;-73
2023/12/28 01:40:44;;;;;;;43.40;19.43;;;;;;;;;;4928504;29;20339;-74
2023/12/28 01:43:10;;;;;;;41.70;19.47;;;;;;;;;;4911021;29;20244;-74
2023/12/28 01:45:35;;;;;;;46.17;20.40;;;;;;;;;;4897746;29;20233;-74
2023/12/28 01:48:00;;;;;;;44.63;21.03;;;;;;;;;;4927449;29;20246;-73
2023/12/28 01:50:26;;;;;;;47.67;21.47;;;;;;;;;;4922107;29;20229;-74
2023/12/28 01:52:51;;;;;;;48.10;21.20;;;;;;;;;;4927001;29;20299;-74
2023/12/28 01:55:16;;;;;;;46.10;19.70;;;;;;;;;;4908492;29;20234;-74
2023/12/28 01:57:42;;;;;;;47.43;19.53;;;;;;;;;;4926852;29;20280;-72
2023/12/28 02:00:07;;;;;;;49.50;21.27;;;;;;;;;;4917562;29;20291;-73
2023/12/28 02:02:33;;;;;;;45.57;20.23;;;;;;;;;;4926380;29;20623;-72
2023/12/28 02:04:58;;;;;;;56.90;23.00;;;;;;;;;;4927277;29;20229;-72
2023/12/28 02:07:24;;;;;;;53.60;23.43;;;;;;;;;;4927622;29;20293;-73
2023/12/28 02:09:49;;;;;;;64.80;28.27;;;;;;;;;;4926514;29;20229;-72
2023/12/28 02:12:14;;;;;;;75.97;31.33;;;;;;;;;;4927624;29;20235;-73
2023/12/28 02:14:40;;;;;;;75.43;31.33;;;;;;;;;;4927561;29;20279;-73
2023/12/28 02:17:22;;;;;;;83.87;33.70;;;;;;;;;;4925525;29;20265;-72
2023/12/28 02:19:50;;;;;;;96.07;37.93;;;;;;;;;;4925666;29;20237;-73
2023/12/28 02:22:16;;;;;;;99.13;38.50;;;;;;;;;;4926571;29;20277;-74
2023/12/28 02:24:50;;;;;;;98.90;38.60;;;;;;;;;;4926332;29;20221;-72
2023/12/28 02:27:15;;;;;;;96.47;38.17;;;;;;;;;;4929531;29;20232;-74
2023/12/28 02:29:41;;;;;;;94.23;37.07;;;;;;;;;;4927461;29;20288;-73
2023/12/28 02:32:06;;;;;;;88.13;36.13;;;;;;;;;;4925480;29;20229;-72
2023/12/28 02:34:37;;;;;;;91.43;37.20;;;;;;;;;;4910405;29;20276;-73
2023/12/28 02:37:02;;;;;;;90.60;36.50;;;;;;;;;;4925935;29;20228;-73
2023/12/28 02:39:27;;;;;;;91.20;36.93;;;;;;;;;;4925501;29;20954;-74
2023/12/28 02:41:55;;;;;;;84.73;36.10;;;;;;;;;;4925728;29;20247;-73
2023/12/28 02:44:20;;;;;;;80.13;34.47;;;;;;;;;;4925400;29;20750;-73
2023/12/28 02:46:45;;;;;;;83.60;34.30;;;;;;;;;;4908919;29;20241;-72
2023/12/28 02:49:11;;;;;;;71.80;30.63;;;;;;;;;;4909458;29;20709;-73
2023/12/28 02:51:37;;;;;;;74.00;30.80;;;;;;;;;;4925946;29;20299;-73
2023/12/28 02:54:02;;;;;;;70.07;30.40;;;;;;;;;;4909742;29;20711;-73
2023/12/28 02:56:27;;;;;;;71.20;30.07;;;;;;;;;;4909733;29;20221;-74
2023/12/28 02:58:53;;;;;;;74.40;31.17;;;;;;;;;;4917279;29;20237;-73
2023/12/28 03:01:18;;;;;;;69.10;30.17;;;;;;;;;;4925821;29;20237;-74
2023/12/28 03:03:43;;;;;;;67.57;29.53;;;;;;;;;;4917570;29;20235;-73
2023/12/28 03:06:09;;;;;;;72.57;30.53;;;;;;;;;;4926023;29;20229;-74
2023/12/28 03:08:34;;;;;;;72.13;30.57;;;;;;;;;;4906693;29;20237;-74
2023/12/28 03:10:59;;;;;;;76.60;31.57;;;;;;;;;;4926549;29;20261;-73
2023/12/28 03:13:25;;;;;;;66.10;29.40;;;;;;;;;;4926287;29;20311;-73
2023/12/28 03:15:50;;;;;;;66.90;29.67;;;;;;;;;;4926360;29;20273;-73
2023/12/28 03:18:15;;;;;;;63.47;29.13;;;;;;;;;;4919028;29;20225;-74
2023/12/28 03:20:41;;;;;;;63.20;27.80;;;;;;;;;;4906374;29;20317;-74
2023/12/28 03:23:06;;;;;;;62.83;27.20;;;;;;;;;;4924671;29;27002;-74
2023/12/28 03:25:31;;;;;;;66.40;27.63;;;;;;;;;;4926990;29;20229;-73
2023/12/28 03:27:57;;;;;;;65.20;27.97;;;;;;;;;;4917043;29;20673;-73
2023/12/28 03:30:22;;;;;;;64.33;28.17;;;;;;;;;;4927056;29;20300;-74
2023/12/28 03:32:47;;;;;;;69.87;28.80;;;;;;;;;;4926497;29;20229;-74
2023/12/28 03:35:13;;;;;;;72.07;29.93;;;;;;;;;;4925130;29;20232;-74
2023/12/28 03:37:38;;;;;;;71.40;29.67;;;;;;;;;;4908156;29;20668;-74
2023/12/28 03:40:04;;;;;;;68.33;29.67;;;;;;;;;;4926002;29;20707;-73
2023/12/28 03:42:29;;;;;;;63.57;27.97;;;;;;;;;;4904946;29;20320;-73
2023/12/28 03:44:55;;;;;;;64.03;27.63;;;;;;;;;;4908616;29;20747;-73
2023/12/28 03:47:20;;;;;;;68.33;29.17;;;;;;;;;;4926767;29;20231;-74
2023/12/28 03:49:45;;;;;;;73.67;30.17;;;;;;;;;;4925133;29;20253;-73
2023/12/28 03:52:11;;;;;;;72.37;29.47;;;;;;;;;;4907669;29;20610;-74
2023/12/28 03:54:36;;;;;;;74.90;30.13;;;;;;;;;;4924686;29;20221;-74
2023/12/28 03:57:02;;;;;;;69.93;29.13;;;;;;;;;;4924129;29;20241;-73
2023/12/28 03:59:27;;;;;;;67.13;28.13;;;;;;;;;;4909072;29;20639;-73
2023/12/28 04:01:52;;;;;;;66.20;28.10;;;;;;;;;;4924251;29;20730;-73
2023/12/28 04:04:18;;;;;;;61.70;27.23;;;;;;;;;;4924599;29;20253;-73
2023/12/28 04:06:43;;;;;;;60.67;26.53;;;;;;;;;;4924579;29;20248;-71
2023/12/28 04:09:11;;;;;;;64.63;27.13;;;;;;;;;;4924894;29;20225;-71
2023/12/28 04:11:37;;;;;;;67.20;27.87;;;;;;;;;;4925889;29;20916;-70
2023/12/28 04:14:02;;;;;;;64.73;27.50;;;;;;;;;;4907779;29;20340;-70
2023/12/28 04:16:28;;;;;;;61.93;26.83;;;;;;;;;;4924460;29;20337;-73
2023/12/28 04:18:53;;;;;;;61.50;27.10;;;;;;;;;;4915996;29;20237;-73
2023/12/28 04:21:18;;;;;;;65.03;28.03;;;;;;;;;;4924034;29;20225;-72
2023/12/28 04:23:44;;;;;;;60.07;26.07;;;;;;;;;;4924557;29;20225;-73
2023/12/28 04:26:09;;;;;;;63.70;27.67;;;;;;;;;;4926238;29;20288;-72
2023/12/28 04:28:35;;;;;;;62.50;26.93;;;;;;;;;;4926846;29;20225;-73
2023/12/28 04:31:04;;;;;;;58.63;27.03;;;;;;;;;;4925329;29;20233;-73
2023/12/28 04:33:29;;;;;;;67.47;27.43;;;;;;;;;;4925948;29;20255;-71
2023/12/28 04:35:54;;;;;;;61.87;27.00;;;;;;;;;;4926774;29;20629;-73
2023/12/28 04:38:20;;;;;;;68.93;27.33;;;;;;;;;;4926400;29;20229;-73
2023/12/28 04:40:45;;;;;;;62.00;26.80;;;;;;;;;;4927628;29;20237;-73
2023/12/28 04:43:11;;;;;;;63.13;26.27;;;;;;;;;;4925714;29;20241;-72
2023/12/28 04:45:36;;;;;;;62.60;26.33;;;;;;;;;;4925965;29;20389;-73
2023/12/28 04:48:02;;;;;;;62.03;26.23;;;;;;;;;;4919883;29;20234;-72
2023/12/28 04:53:11;;;;;;;60.67;25.97;;;;;;;;;;4925794;29;20889;-72
2023/12/28 04:55:36;;;;;;;59.33;25.13;;;;;;;;;;4926369;29;20222;-73
2023/12/28 04:58:02;;;;;;;58.40;26.07;;;;;;;;;;4926710;29;20265;-73
2023/12/28 05:00:27;;;;;;;59.50;24.90;;;;;;;;;;4925322;29;20873;-73
2023/12/28 05:02:52;;;;;;;65.10;25.93;;;;;;;;;;4909999;29;20241;-73
2023/12/28 05:05:18;;;;;;;57.80;25.00;;;;;;;;;;4926122;29;20229;-74
2023/12/28 05:07:43;;;;;;;56.23;24.37;;;;;;;;;;4926053;29;20705;-73
2023/12/28 05:10:08;;;;;;;59.27;24.83;;;;;;;;;;4908573;29;20259;-73
2023/12/28 05:12:34;;;;;;;60.00;25.70;;;;;;;;;;4926554;29;20602;-73
2023/12/28 05:14:59;;;;;;;57.20;24.87;;;;;;;;;;4925465;29;20826;-73
2023/12/28 05:17:24;;;;;;;61.87;25.17;;;;;;;;;;4928816;29;20670;-74
2023/12/28 05:19:50;;;;;;;59.93;25.87;;;;;;;;;;4910921;29;20230;-73
2023/12/28 05:22:15;;;;;;;59.60;26.97;;;;;;;;;;4928703;29;20240;-73
2023/12/28 05:24:40;;;;;;;63.07;28.43;;;;;;;;;;4928261;29;20287;-73
2023/12/28 05:27:06;;;;;;;71.13;28.30;;;;;;;;;;4926893;29;20252;-73
2023/12/28 05:29:31;;;;;;;72.00;29.73;;;;;;;;;;4918330;29;20217;-74
2023/12/28 05:31:56;;;;;;;69.40;29.13;;;;;;;;;;4925013;29;20906;-73
2023/12/28 05:34:22;;;;;;;66.90;29.07;;;;;;;;;;4926971;29;20221;-73
2023/12/28 05:36:47;;;;;;;68.97;28.87;;;;;;;;;;4916057;29;20226;-73
2023/12/28 05:39:15;;;;;;;61.07;27.33;;;;;;;;;;4909416;29;20229;-73
2023/12/28 05:41:41;;;;;;;64.57;26.80;;;;;;;;;;4903140;29;20617;-73
2023/12/28 05:44:06;;;;;;;62.47;26.90;;;;;;;;;;4924602;29;20315;-73
2023/12/28 05:46:31;;;;;;;60.80;26.47;;;;;;;;;;4924427;29;20217;-74
2023/12/28 05:48:57;;;;;;;66.23;27.63;;;;;;;;;;4924359;29;20257;-73
2023/12/28 05:51:22;;;;;;;65.47;26.87;;;;;;;;;;4923224;29;20221;-71
2023/12/28 05:53:48;;;;;;;64.03;27.63;;;;;;;;;;4925786;29;20237;-73
2023/12/28 05:56:13;;;;;;;69.97;28.60;;;;;;;;;;4925135;29;20300;-71
2023/12/28 05:58:38;;;;;;;61.53;27.70;;;;;;;;;;4915111;29;20236;-73
2023/12/28 06:01:04;;;;;;;62.23;26.87;;;;;;;;;;4912931;29;20218;-70
2023/12/28 06:03:30;;;;;;;63.17;27.17;;;;;;;;;;4924560;29;20619;-71
2023/12/28 06:05:56;;;;;;;57.33;25.83;;;;;;;;;;4924403;29;20240;-70
2023/12/28 06:08:21;;;;;;;65.73;26.67;;;;;;;;;;4925305;29;20233;-69
2023/12/28 06:10:46;;;;;;;65.20;25.97;;;;;;;;;;4906970;29;20265;-69
2023/12/28 06:13:12;;;;;;;61.63;25.67;;;;;;;;;;4915045;29;20241;-69
2023/12/28 06:15:37;;;;;;;62.03;25.10;;;;;;;;;;4926085;29;20350;-70
2023/12/28 06:18:04;;;;;;;57.53;24.37;;;;;;;;;;4908914;29;20283;-70
2023/12/28 06:20:29;;;;;;;63.67;24.50;;;;;;;;;;4926553;29;20609;-69
2023/12/28 06:22:54;;;;;;;56.93;24.83;;;;;;;;;;4916174;29;20269;-68
2023/12/28 06:25:20;;;;;;;58.03;24.67;;;;;;;;;;4920545;29;20247;-69
2023/12/28 06:27:45;;;;;;;59.77;24.77;;;;;;;;;;4926175;29;20285;-70
2023/12/28 06:30:11;;;;;;;56.37;25.00;;;;;;;;;;4908430;29;20334;-69
2023/12/28 06:32:36;;;;;;;57.27;26.00;;;;;;;;;;4924905;29;20221;-69
2023/12/28 06:35:01;;;;;;;59.07;24.93;;;;;;;;;;4924881;29;20712;-70
2023/12/28 06:37:27;;;;;;;59.90;25.73;;;;;;;;;;4909567;29;20222;-70
2023/12/28 06:39:52;;;;;;;62.50;27.30;;;;;;;;;;4924981;29;20245;-70
2023/12/28 06:42:17;;;;;;;68.63;28.03;;;;;;;;;;4925687;29;20265;-70
2023/12/28 06:44:43;;;;;;;68.13;28.17;;;;;;;;;;4909651;29;21034;-71
2023/12/28 06:47:08;;;;;;;61.77;27.93;;;;;;;;;;4924716;29;20702;-70
2023/12/28 06:49:33;;;;;;;70.90;28.37;;;;;;;;;;4924822;29;20804;-69
2023/12/28 06:51:59;;;;;;;72.60;29.83;;;;;;;;;;4925259;29;20320;-69
2023/12/28 06:54:24;;;;;;;71.97;30.77;;;;;;;;;;4927106;29;20218;-71
2023/12/28 06:56:51;;;;;;;80.37;33.07;;;;;;;;;;4923880;29;20258;-69
2023/12/28 06:59:16;;;;;;;86.20;32.47;;;;;;;;;;4923693;29;20926;-70
2023/12/28 07:01:42;;;;;;;74.53;32.07;;;;;;;;;;4925357;29;20245;-69
2023/12/28 07:04:07;;;;;;;80.20;31.60;;;;;;;;;;4925875;29;20297;-70
2023/12/28 07:06:33;;;;;;;75.83;31.30;;;;;;;;;;4926711;29;20273;-69
2023/12/28 07:08:58;;;;;;;69.23;31.03;;;;;;;;;;4908157;29;20557;-70
2023/12/28 07:11:23;;;;;;;75.50;29.90;;;;;;;;;;4908783;29;20249;-70
2023/12/28 07:13:49;;;;;;;81.93;30.27;;;;;;;;;;4923654;29;20225;-73
2023/12/28 07:16:15;;;;;;;93.90;35.70;;;;;;;;;;4925099;29;20931;-72
2023/12/28 07:18:41;;;;;;;76.47;32.17;;;;;;;;;;4924841;29;20307;-72
2023/12/28 07:21:09;;;;;;;59.00;25.87;;;;;;;;;;4924679;29;20658;-71
2023/12/28 07:23:34;;;;;;;89.93;37.03;;;;;;;;;;4909196;29;20230;-73
2023/12/28 07:26:00;;;;;;;90.97;36.70;;;;;;;;;;4908442;29;20228;-73
2023/12/28 07:28:25;;;;;;;82.73;35.03;;;;;;;;;;4925316;29;20232;-72
2023/12/28 07:30:50;;;;;;;73.77;30.53;;;;;;;;;;4926046;29;20321;-73
2023/12/28 07:33:16;;;;;;;58.50;26.90;;;;;;;;;;4924745;29;20233;-72
2023/12/28 07:35:41;;;;;;;56.23;26.70;;;;;;;;;;4924602;29;20236;-70
2023/12/28 07:38:07;;;;;;;61.50;26.27;;;;;;;;;;4922925;29;20862;-70
2023/12/28 07:40:32;;;;;;;52.20;23.30;;;;;;;;;;4916941;29;20391;-70
2023/12/28 07:42:57;;;;;;;50.13;22.47;;;;;;;;;;4923794;29;20256;-70
2023/12/28 07:45:24;;;;;;;47.47;22.80;;;;;;;;;;4925280;29;20225;-70
2023/12/28 07:47:52;;;;;;;48.83;23.73;;;;;;;;;;4924623;29;20238;-70
2023/12/28 07:50:17;;;;;;;51.03;24.20;;;;;;;;;;4923887;29;20229;-71
2023/12/28 07:52:43;;;;;;;57.10;24.77;;;;;;;;;;4924097;29;20225;-71
2023/12/28 07:55:08;;;;;;;54.00;25.27;;;;;;;;;;4922160;29;20666;-74
2023/12/28 07:57:34;;;;;;;62.50;27.47;;;;;;;;;;4924117;29;20312;-73
2023/12/28 07:59:59;;;;;;;62.00;28.43;;;;;;;;;;4925035;29;20248;-73
2023/12/28 08:02:25;;;;;;;64.67;28.53;;;;;;;;;;4925222;29;20368;-73
2023/12/28 08:04:50;;;;;;;67.97;29.30;;;;;;;;;;4925625;29;20222;-73
2023/12/28 08:07:15;;;;;;;60.63;28.17;;;;;;;;;;4925481;29;20233;-73
2023/12/28 08:09:41;;;;;;;61.70;28.53;;;;;;;;;;4924777;29;20291;-73
2023/12/28 08:12:06;;;;;;;63.13;28.33;;;;;;;;;;4923936;29;20237;-73
2023/12/28 08:14:32;;;;;;;62.47;28.70;;;;;;;;;;4923205;29;20269;-72
2023/12/28 08:16:57;;;;;;;60.80;27.23;;;;;;;;;;4923667;29;20229;-72
2023/12/28 08:19:22;;;;;;;56.90;26.80;;;;;;;;;;4924666;29;20273;-73
2023/12/28 08:21:48;;;;;;;59.33;26.60;;;;;;;;;;4923820;29;20372;-72
2023/12/28 08:24:13;;;;;;;59.93;26.50;;;;;;;;;;4915348;29;20252;-73
2023/12/28 08:26:38;;;;;;;68.47;30.13;;;;;;;;;;4907712;29;20222;-72
2023/12/28 08:29:04;;;;;;;61.57;27.87;;;;;;;;;;4908413;29;20749;-72
2023/12/28 08:31:29;;;;;;;63.93;29.23;;;;;;;;;;4924964;29;20252;-71
2023/12/28 08:33:55;;;;;;;67.40;29.73;;;;;;;;;;4907356;29;20705;-72
2023/12/28 08:36:21;;;;;;;72.23;30.47;;;;;;;;;;4924052;29;20232;-70
2023/12/28 08:38:46;;;;;;;75.20;32.50;;;;;;;;;;4923199;29;21122;-71
2023/12/28 08:41:21;;;;;;;88.20;37.80;;;;;;;;;;4923575;29;20309;-71
2023/12/28 08:43:47;;;;;;;84.07;36.77;;;;;;;;;;4923785;29;20245;-71
2023/12/28 08:46:12;;;;;;;92.23;41.23;;;;;;;;;;4903547;29;20226;-72
2023/12/28 08:48:38;;;;;;;99.27;40.93;;;;;;;;;;4920595;29;20715;-72
2023/12/28 08:51:03;;;;;;;102.97;43.53;;;;;;;;;;4916681;29;20237;-72
2023/12/28 08:53:28;;;;;;;105.93;43.63;;;;;;;;;;4923235;29;20296;-72
2023/12/28 08:55:54;;;;;;;96.03;41.67;;;;;;;;;;4924709;29;20236;-72
2023/12/28 08:58:19;;;;;;;98.10;41.60;;;;;;;;;;4925514;29;20259;-71
2023/12/28 09:00:45;;;;;;;92.97;41.17;;;;;;;;;;4917825;29;20240;-72
2023/12/28 09:03:11;;;;;;;97.20;41.60;;;;;;;;;;4923183;29;20716;-71
2023/12/28 09:05:36;;;;;;;89.40;40.23;;;;;;;;;;4891743;29;20226;-70
2023/12/28 09:08:01;;;;;;;86.57;38.07;;;;;;;;;;4908178;29;20739;-71
2023/12/28 09:10:27;;;;;;;92.63;39.83;;;;;;;;;;4918821;29;20222;-72
2023/12/28 09:12:52;;;;;;;78.70;37.07;;;;;;;;;;4928230;29;20257;-72
2023/12/28 09:15:17;;;;;;;82.13;36.40;;;;;;;;;;4926948;29;20230;-71
2023/12/28 09:17:43;;;;;;;79.03;35.73;;;;;;;;;;4911755;29;20290;-71
2023/12/28 09:20:08;;;;;;;80.20;34.97;;;;;;;;;;4926519;29;20257;-72
2023/12/28 09:22:34;;;;;;;74.93;33.67;;;;;;;;;;4928172;29;20265;-72
2023/12/28 09:24:59;;;;;;;64.53;32.57;;;;;;;;;;4926660;29;20665;-70
2023/12/28 09:27:25;;;;;;;69.23;31.23;;;;;;;;;;4911026;29;20718;-72
2023/12/28 09:29:50;;;;;;;67.07;31.23;;;;;;;;;;4910431;29;20638;-72
2023/12/28 09:32:16;;;;;;;67.83;29.17;;;;;;;;;;4926923;29;20320;-73
2023/12/28 09:34:42;;;;;;;63.43;29.40;;;;;;;;;;4926614;29;20233;-71
2023/12/28 09:37:07;;;;;;;65.83;28.37;;;;;;;;;;4926702;29;20828;-71
2023/12/28 09:39:32;;;;;;;63.87;28.80;;;;;;;;;;4926543;29;20221;-72
2023/12/28 09:42:04;;;;;;;64.77;30.13;;;;;;;;;;4927593;29;21069;-70
2023/12/28 09:44:30;;;;;;;63.37;27.97;;;;;;;;;;4906937;29;20227;-70
2023/12/28 09:46:57;;;;;;;61.13;28.37;;;;;;;;;;4922086;29;20819;-71
2023/12/28 09:49:22;;;;;;;63.37;28.67;;;;;;;;;;4910207;29;20320;-70
2023/12/28 09:51:48;;;;;;;59.03;28.93;;;;;;;;;;4909702;29;20790;-73
2023/12/28 09:54:13;;;;;;;58.43;28.40;;;;;;;;;;4928037;29;20233;-72
2023/12/28 09:56:38;;;;;;;63.10;29.23;;;;;;;;;;4926826;29;20760;-72
2023/12/28 09:59:05;;;;;;;63.37;28.80;;;;;;;;;;4925815;29;20249;-73
2023/12/28 10:01:30;;;;;;;60.77;28.73;;;;;;;;;;4926353;29;20229;-73
2023/12/28 10:03:55;;;;;;;59.03;28.70;;;;;;;;;;4927141;29;20342;-73
2023/12/28 10:06:21;;;;;;;62.43;29.53;;;;;;;;;;4926110;29;20229;-72
2023/12/28 10:08:50;;;;;;;63.27;29.80;;;;;;;;;;4927351;29;20243;-73
2023/12/28 10:11:16;;;;;;;61.77;29.33;;;;;;;;;;4916651;29;20217;-73
2023/12/28 10:13:42;;;;;;;63.50;29.47;;;;;;;;;;4926383;29;21065;-72
2023/12/28 10:16:08;;;;;;;67.50;30.13;;;;;;;;;;4925736;29;20243;-72
2023/12/28 10:18:35;;;;;;;71.10;29.97;;;;;;;;;;4925133;29;20229;-73
2023/12/28 10:21:00;;;;;;;66.60;30.70;;;;;;;;;;4925215;29;20654;-73
2023/12/28 10:23:25;;;;;;;61.60;30.10;;;;;;;;;;4924424;29;20300;-72
2023/12/28 10:25:53;;;;;;;62.87;29.93;;;;;;;;;;4926131;29;20225;-73
2023/12/28 10:28:19;;;;;;;64.87;31.47;;;;;;;;;;4897188;29;20249;-73
2023/12/28 10:30:45;;;;;;;61.83;30.50;;;;;;;;;;4925629;29;20703;-74
2023/12/28 10:33:10;;;;;;;65.00;31.43;;;;;;;;;;4924647;29;20235;-73
2023/12/28 10:35:35;;;;;;;64.80;32.40;;;;;;;;;;4925658;29;20717;-72
2023/12/28 10:38:03;;;;;;;63.50;31.50;;;;;;;;;;4908445;29;20660;-74
2023/12/28 10:40:30;;;;;;;65.50;31.37;;;;;;;;;;4923109;29;20222;-71
2023/12/28 10:43:01;;;;;;;61.93;30.30;;;;;;;;;;4906354;29;20241;-71
2023/12/28 10:45:26;;;;;;;63.10;31.30;;;;;;;;;;4924339;29;20225;-72
2023/12/28 10:48:07;;;;;;;63.83;30.53;;;;;;;;;;4925058;29;20265;-72
2023/12/28 10:50:53;;;;;;;61.30;29.90;;;;;;;;;;4926324;29;20232;-70
2023/12/28 10:53:37;;;;;;;66.73;30.60;;;;;;;;;;4925286;29;20739;-72
2023/12/28 10:56:08;;;;;;;63.70;29.77;;;;;;;;;;4899464;29;20280;-70
2023/12/28 10:58:48;;;;;;;65.23;30.00;;;;;;;;;;4914686;29;20229;-71
2023/12/28 11:01:16;;;;;;;66.03;29.43;;;;;;;;;;4923613;29;20248;-71
2023/12/28 11:03:41;;;;;;;60.17;27.87;;;;;;;;;;4925341;29;20236;-71
2023/12/28 11:06:06;;;;;;;55.97;27.57;;;;;;;;;;4924186;29;20220;-70
2023/12/28 11:08:32;;;;;;;56.87;27.10;;;;;;;;;;4925049;29;20237;-71
2023/12/28 11:10:57;;;;;;;61.50;29.07;;;;;;;;;;4926191;29;21048;-71
2023/12/28 11:13:23;;;;;;;60.10;28.37;;;;;;;;;;4924230;29;20234;-70
2023/12/28 11:15:48;;;;;;;63.37;28.33;;;;;;;;;;4909125;29;20300;-71
2023/12/28 11:18:14;;;;;;;61.93;28.43;;;;;;;;;;4908401;29;20234;-70
2023/12/28 11:20:40;;;;;;;58.23;29.17;;;;;;;;;;4926132;29;20223;-70
2023/12/28 11:23:05;;;;;;;62.70;27.80;;;;;;;;;;4908411;29;20237;-71
2023/12/28 11:25:31;;;;;;;59.40;27.73;;;;;;;;;;4925336;29;20221;-70
2023/12/28 11:27:56;;;;;;;54.20;27.17;;;;;;;;;;4924753;29;20233;-71
2023/12/28 11:30:21;;;;;;;58.73;26.50;;;;;;;;;;4924381;29;20828;-71
2023/12/28 11:32:47;;;;;;;60.97;27.63;;;;;;;;;;4924380;29;20273;-71
2023/12/28 11:35:15;;;;;;;51.80;27.23;;;;;;;;;;4925591;29;20256;-71
2023/12/28 11:37:41;;;;;;;58.53;28.47;;;;;;;;;;4908535;29;20309;-71
2023/12/28 11:40:15;;;;;;;57.33;27.23;;;;;;;;;;4896793;29;20318;-71
2023/12/28 11:42:50;;;;;;;54.73;27.20;;;;;;;;;;4916139;29;20239;-71
2023/12/28 11:45:16;;;;;;;57.63;27.00;;;;;;;;;;4923937;29;20220;-73
2023/12/28 11:47:41;;;;;;;48.13;25.17;;;;;;;;;;4908312;29;21010;-73
2023/12/28 11:50:07;;;;;;;55.27;26.30;;;;;;;;;;4924180;29;20288;-73
2023/12/28 11:52:33;;;;;;;53.47;25.97;;;;;;;;;;4908767;29;20369;-73
2023/12/28 11:55:02;;;;;;;54.87;25.47;;;;;;;;;;4923722;29;20300;-72
2023/12/28 11:57:27;;;;;;;56.13;26.17;;;;;;;;;;4909413;29;20235;-73
2023/12/28 11:59:53;;;;;;;53.80;25.63;;;;;;;;;;4923273;29;20218;-72
2023/12/28 12:02:18;;;;;;;53.63;26.30;;;;;;;;;;4923905;29;20236;-72
2023/12/28 12:04:44;;;;;;;52.37;26.27;;;;;;;;;;4924612;29;20236;-73
2023/12/28 12:07:09;;;;;;;54.33;26.53;;;;;;;;;;4925379;29;20241;-72
2023/12/28 12:09:34;;;;;;;54.97;24.73;;;;;;;;;;4923498;29;20236;-72
2023/12/28 12:12:00;;;;;;;50.23;25.33;;;;;;;;;;4923265;29;20229;-73
2023/12/28 12:14:28;;;;;;;50.80;24.70;;;;;;;;;;4924358;29;20841;-72
2023/12/28 12:16:55;;;;;;;51.60;24.60;;;;;;;;;;4923818;29;20772;-71
2023/12/28 12:19:20;;;;;;;47.77;24.57;;;;;;;;;;4923882;29;20229;-70
2023/12/28 12:21:47;;;;;;;51.50;24.37;;;;;;;;;;4924092;29;20245;-71
2023/12/28 12:24:13;;;;;;;49.23;24.67;;;;;;;;;;4923941;29;20233;-73
2023/12/28 12:26:38;;;;;;;51.27;25.00;;;;;;;;;;4924708;29;20225;-73
2023/12/28 12:29:04;;;;;;;49.60;24.43;;;;;;;;;;4922533;29;20620;-73
2023/12/28 12:31:29;;;;;;;49.57;24.13;;;;;;;;;;4923949;29;20229;-73
2023/12/28 12:33:55;;;;;;;53.13;23.80;;;;;;;;;;4907195;29;20722;-73
2023/12/28 12:36:21;;;;;;;46.20;22.70;;;;;;;;;;4924755;29;20225;-73
2023/12/28 12:38:47;;;;;;;45.07;21.97;;;;;;;;;;4924969;29;20263;-73
2023/12/28 12:41:12;;;;;;;45.63;21.60;;;;;;;;;;4907530;29;20771;-73
2023/12/28 12:43:38;;;;;;;48.27;22.43;;;;;;;;;;4908155;29;20881;-74
2023/12/28 12:46:04;;;;;;;41.87;20.03;;;;;;;;;;4925811;29;20236;-72
2023/12/28 12:48:29;;;;;;;46.80;22.13;;;;;;;;;;4927585;29;20225;-72
2023/12/28 12:50:54;;;;;;;40.83;19.53;;;;;;;;;;4926616;29;20236;-73
2023/12/28 12:53:20;;;;;;;37.00;18.13;;;;;;;;;;4911369;29;20245;-74
2023/12/28 12:55:46;;;;;;;36.67;18.70;;;;;;;;;;4911286;29;20244;-73
2023/12/28 12:58:13;;;;;;;38.60;19.90;;;;;;;;;;4910443;29;20604;-73
2023/12/28 13:00:38;;;;;;;39.07;19.40;;;;;;;;;;4926653;29;20304;-73
2023/12/28 13:03:07;;;;;;;41.23;20.87;;;;;;;;;;4926443;29;20317;-72
2023/12/28 13:05:32;;;;;;;43.33;21.57;;;;;;;;;;4927383;29;20316;-74
2023/12/28 13:07:57;;;;;;;46.23;22.37;;;;;;;;;;4926371;29;20381;-74
2023/12/28 13:10:23;;;;;;;47.30;22.97;;;;;;;;;;4928849;29;20229;-73
2023/12/28 13:12:48;;;;;;;42.77;22.20;;;;;;;;;;4927982;29;20389;-72
2023/12/28 13:15:14;;;;;;;43.00;21.47;;;;;;;;;;4922021;29;20320;-74
2023/12/28 13:17:39;;;;;;;45.80;21.60;;;;;;;;;;4925289;29;20233;-72
2023/12/28 13:20:05;;;;;;;42.60;20.63;;;;;;;;;;4926952;29;20222;-72
2023/12/28 13:22:31;;;;;;;39.30;20.10;;;;;;;;;;4909500;29;20233;-73
2023/12/28 13:24:57;;;;;;;38.20;20.10;;;;;;;;;;4924695;29;20233;-73
2023/12/28 13:27:23;;;;;;;38.23;20.23;;;;;;;;;;4926922;29;20225;-73
2023/12/28 13:29:48;;;;;;;42.97;21.77;;;;;;;;;;4925816;29;20225;-73
2023/12/28 13:32:15;;;;;;;44.47;20.23;;;;;;;;;;4925397;29;20230;-72
2023/12/28 13:34:40;;;;;;;36.40;19.67;;;;;;;;;;4914553;29;20321;-73
2023/12/28 13:37:06;;;;;;;39.63;19.53;;;;;;;;;;4924167;29;20328;-73
2023/12/28 13:39:31;;;;;;;38.00;20.43;;;;;;;;;;4924707;29;20624;-73
2023/12/28 13:41:57;;;;;;;39.63;19.13;;;;;;;;;;4925066;29;20340;-73
2023/12/28 13:44:22;;;;;;;36.13;20.10;;;;;;;;;;4909295;29;20732;-73
2023/12/28 13:46:48;;;;;;;40.23;20.30;;;;;;;;;;4909303;29;20257;-74
2023/12/28 13:49:14;;;;;;;41.50;20.43;;;;;;;;;;4941522;29;20936;-73
2023/12/28 13:51:39;;;;;;;43.07;20.87;;;;;;;;;;4909039;29;20229;-73
2023/12/28 13:54:05;;;;;;;44.93;21.33;;;;;;;;;;4919480;29;20237;-73
2023/12/28 13:56:30;;;;;;;42.50;20.40;;;;;;;;;;4924406;29;20226;-73
2023/12/28 13:58:56;;;;;;;44.57;19.63;;;;;;;;;;4924737;29;20226;-72
2023/12/28 14:01:21;;;;;;;39.93;18.67;;;;;;;;;;4923641;29;20233;-73
2023/12/28 14:03:48;;;;;;;37.40;18.20;;;;;;;;;;4925805;29;20708;-72
2023/12/28 14:06:14;;;;;;;38.37;18.53;;;;;;;;;;4907645;29;20227;-73
2023/12/28 14:08:39;;;;;;;37.83;18.57;;;;;;;;;;4923196;29;20233;-73
2023/12/28 14:11:05;;;;;;;39.20;19.27;;;;;;;;;;4923755;29;20766;-71